»·PEaware :: N899M KSAC-KOAK

N899M :: KSAC-KOAK

FLIGHT INFORMATION

Flight Status: Arrived
Operator: Privately registered:
United States
More flights under this callsign
Pilot: Robert C. (30425)
Aircraft: Unknown
(EPIC)
More flights by this aircraft type
Origin: KSAC Sacramento Executive
United States
Destination: KOAK Metro Oakland Intl
United States
More flights between these airports :: More routes between these airports
Route: SAC V334 SUNOL
File this flight plan on PilotEdge
Remarks:
Altitude:
(Current/Filed)
7,000ft
Speed:
(Current/Filed)
250kts
Departed: 02-Nov-20 07:46 PM
Arrived: 02-Nov-20 08:07 PM
Distance/Time
Traveled:
58nm/0:21
Distance/Time
To Go:
Arrived

Flight Plot

Page will automatically refresh every two minutes.

Flight plan parsing failed; only flown route is shown


Map Options




Map Legend


Flown Route
Filed Route
Departure Airport
Arrival Airport
Navaid (VOR, NDB)
Fix

Horizontal Profiles

Position Reports

Time Latitude Longitude Heading Altitude Ground
Speed
02-Nov-20 19:23 38.520410 -121.495868 302 24ft 0kts
02-Nov-20 19:24 38.520410 -121.495868 302 24ft 0kts
02-Nov-20 19:25 38.520410 -121.495868 302 24ft 0kts
02-Nov-20 19:26 38.520410 -121.495868 302 24ft 0kts
02-Nov-20 19:27 38.520410 -121.495868 302 24ft 0kts
02-Nov-20 19:28 38.520410 -121.495868 302 24ft 0kts
02-Nov-20 19:29 38.520410 -121.495868 302 24ft 0kts
02-Nov-20 19:30 38.520410 -121.495868 302 24ft 0kts
02-Nov-20 19:31 38.520410 -121.495868 302 24ft 0kts
02-Nov-20 19:32 38.520410 -121.495868 302 24ft 0kts
02-Nov-20 19:33 38.520410 -121.495868 302 24ft 0kts
02-Nov-20 19:34 38.520410 -121.495868 302 24ft 0kts
02-Nov-20 19:35 38.520410 -121.495868 302 24ft 0kts
02-Nov-20 19:36 38.520410 -121.495868 302 24ft 0kts
02-Nov-20 19:37 38.520410 -121.495868 302 24ft 0kts
02-Nov-20 19:38 38.520410 -121.495868 302 24ft 0kts
02-Nov-20 19:39 38.520410 -121.495868 302 24ft 0kts
02-Nov-20 19:40 38.520204 -121.496173 164 24ft 6kts
02-Nov-20 19:41 38.519693 -121.494795 89 24ft 4kts
02-Nov-20 19:42 38.519532 -121.492544 104 24ft 6kts
02-Nov-20 19:43 38.519194 -121.490487 103 23ft 0kts
02-Nov-20 19:44 38.519184 -121.490431 102 23ft 0kts
02-Nov-20 19:45 38.517082 -121.490844 211 23ft 65kts
02-Nov-20 19:47 38.474532 -121.526437 213 549ft 251kts
02-Nov-20 19:48 38.411702 -121.576784 198 1723ft 273kts
02-Nov-20 19:49 38.338628 -121.590454 192 3437ft 257kts
02-Nov-20 19:50 38.269669 -121.608835 192 5223ft 253kts
02-Nov-20 19:51 38.200730 -121.627431 192 6940ft 257kts
02-Nov-20 19:52 38.130139 -121.649044 194 6997ft 261kts
02-Nov-20 19:53 38.060236 -121.670633 193 6999ft 256kts
02-Nov-20 19:54 37.991863 -121.691735 194 7003ft 256kts
02-Nov-20 19:55 37.922149 -121.713260 192 7006ft 258kts
02-Nov-20 19:56 37.853226 -121.734454 192 7007ft 253kts
02-Nov-20 19:57 37.793935 -121.776499 229 6765ft 263kts
02-Nov-20 19:58 37.750145 -121.844401 229 5680ft 240kts
02-Nov-20 19:59 37.709550 -121.907195 229 4155ft 224kts
02-Nov-20 20:00 37.673840 -121.962327 229 3344ft 163kts
02-Nov-20 20:01 37.663215 -122.013959 290 3399ft 177kts
02-Nov-20 20:02 37.680409 -122.067922 292 2616ft 165kts
02-Nov-20 20:03 37.694391 -122.114520 294 1622ft 118kts
02-Nov-20 20:03 37.704458 -122.142007 293 1018ft 91kts
02-Nov-20 20:05 37.715679 -122.177067 292 556ft 93kts
02-Nov-20 20:05 37.724323 -122.203295 293 76ft 96kts
02-Nov-20 20:07 37.728680 -122.213979 23 7ft 0kts
02-Nov-20 20:07 37.728680 -122.213979 23 7ft 0kts
02-Nov-20 20:08 37.730649 -122.214322 318 7ft 12kts
02-Nov-20 20:09 37.731562 -122.214000 66 7ft 0kts
02-Nov-20 20:10 37.731562 -122.214000 66 7ft 0kts
02-Nov-20 20:11 37.731562 -122.214000 66 7ft 0kts
02-Nov-20 20:12 37.731562 -122.214000 66 7ft 0kts
02-Nov-20 20:13 37.731562 -122.214000 66 7ft 0kts
02-Nov-20 20:14 37.731562 -122.214000 66 7ft 0kts
02-Nov-20 20:15 37.731184 -122.213858 188 7ft 4kts
02-Nov-20 20:16 37.729837 -122.213137 130 7ft 6kts
02-Nov-20 20:17 37.729723 -122.212248 305 7ft 0kts
02-Nov-20 20:18 37.729756 -122.212314 302 7ft 0kts
02-Nov-20 20:19 37.729756 -122.212314 302 7ft 0kts
02-Nov-20 20:20 37.729756 -122.212314 302 7ft 0kts
02-Nov-20 20:21 37.729756 -122.212314 302 7ft 0kts

Navigation Log

Ident Type
Flight plan parsing failed, navigation log unavailable